sensor_id;sensor_type;location;lat;lon;timestamp;P1;durP1;ratioP1;P2;durP2;ratioP2
34353;SDS011;20618;0.000;0.000;2023-04-24T00:01:43;3.85;;;2.83;;
34353;SDS011;20618;0.000;0.000;2023-04-24T00:04:10;3.97;;;3.00;;
34353;SDS011;20618;0.000;0.000;2023-04-24T00:06:39;4.28;;;3.17;;
34353;SDS011;20618;0.000;0.000;2023-04-24T00:09:08;3.95;;;2.47;;
34353;SDS011;20618;0.000;0.000;2023-04-24T00:11:35;3.25;;;2.50;;
34353;SDS011;20618;0.000;0.000;2023-04-24T00:14:01;4.15;;;3.08;;
34353;SDS011;20618;0.000;0.000;2023-04-24T00:16:27;3.60;;;2.97;;
34353;SDS011;20618;0.000;0.000;2023-04-24T00:18:53;3.05;;;2.50;;
34353;SDS011;20618;0.000;0.000;2023-04-24T00:21:20;3.20;;;2.90;;
34353;SDS011;20618;0.000;0.000;2023-04-24T00:23:46;3.40;;;2.70;;
34353;SDS011;20618;0.000;0.000;2023-04-24T00:26:13;3.75;;;2.63;;
34353;SDS011;20618;0.000;0.000;2023-04-24T00:28:39;3.60;;;2.50;;
34353;SDS011;20618;0.000;0.000;2023-04-24T00:31:05;3.72;;;2.70;;
34353;SDS011;20618;0.000;0.000;2023-04-24T00:33:32;3.92;;;2.67;;
34353;SDS011;20618;0.000;0.000;2023-04-24T00:35:58;3.60;;;2.90;;
34353;SDS011;20618;0.000;0.000;2023-04-24T00:38:24;3.60;;;2.70;;
34353;SDS011;20618;0.000;0.000;2023-04-24T00:40:50;4.00;;;2.90;;
34353;SDS011;20618;0.000;0.000;2023-04-24T00:43:17;3.25;;;2.70;;
34353;SDS011;20618;0.000;0.000;2023-04-24T00:45:43;3.42;;;2.58;;
34353;SDS011;20618;0.000;0.000;2023-04-24T00:48:09;3.90;;;2.80;;
34353;SDS011;20618;0.000;0.000;2023-04-24T00:50:36;3.53;;;2.72;;
34353;SDS011;20618;0.000;0.000;2023-04-24T00:53:02;4.95;;;2.92;;
34353;SDS011;20618;0.000;0.000;2023-04-24T00:55:28;3.58;;;2.83;;
34353;SDS011;20618;0.000;0.000;2023-04-24T00:57:55;3.75;;;2.83;;
34353;SDS011;20618;0.000;0.000;2023-04-24T01:00:21;2.67;;;2.33;;
34353;SDS011;20618;0.000;0.000;2023-04-24T01:02:47;3.70;;;2.92;;
34353;SDS011;20618;0.000;0.000;2023-04-24T01:05:15;3.30;;;2.45;;
34353;SDS011;20618;0.000;0.000;2023-04-24T01:07:43;3.70;;;2.80;;
34353;SDS011;20618;0.000;0.000;2023-04-24T01:10:10;3.47;;;2.80;;
34353;SDS011;20618;0.000;0.000;2023-04-24T01:12:37;3.50;;;2.70;;
34353;SDS011;20618;0.000;0.000;2023-04-24T01:15:03;4.72;;;2.67;;
34353;SDS011;20618;0.000;0.000;2023-04-24T01:17:30;3.20;;;2.67;;
34353;SDS011;20618;0.000;0.000;2023-04-24T01:19:56;3.78;;;2.60;;
34353;SDS011;20618;0.000;0.000;2023-04-24T01:22:22;3.70;;;2.58;;
34353;SDS011;20618;0.000;0.000;2023-04-24T01:24:48;3.30;;;3.00;;
34353;SDS011;20618;0.000;0.000;2023-04-24T01:27:15;3.95;;;2.92;;
34353;SDS011;20618;0.000;0.000;2023-04-24T01:29:41;3.47;;;2.60;;
34353;SDS011;20618;0.000;0.000;2023-04-24T01:32:07;3.97;;;3.00;;
34353;SDS011;20618;0.000;0.000;2023-04-24T01:34:33;4.10;;;2.90;;
34353;SDS011;20618;0.000;0.000;2023-04-24T01:37:00;3.78;;;2.90;;
34353;SDS011;20618;0.000;0.000;2023-04-24T01:39:26;3.75;;;2.85;;
34353;SDS011;20618;0.000;0.000;2023-04-24T01:41:53;3.22;;;2.67;;
34353;SDS011;20618;0.000;0.000;2023-04-24T01:44:20;3.17;;;2.50;;
34353;SDS011;20618;0.000;0.000;2023-04-24T01:46:46;3.47;;;2.58;;
34353;SDS011;20618;0.000;0.000;2023-04-24T01:49:12;3.65;;;2.80;;
34353;SDS011;20618;0.000;0.000;2023-04-24T01:51:38;3.30;;;2.60;;
34353;SDS011;20618;0.000;0.000;2023-04-24T01:54:05;3.10;;;2.67;;
34353;SDS011;20618;0.000;0.000;2023-04-24T01:56:31;3.33;;;2.47;;
34353;SDS011;20618;0.000;0.000;2023-04-24T01:59:00;4.90;;;2.92;;
34353;SDS011;20618;0.000;0.000;2023-04-24T02:01:29;3.35;;;2.58;;
34353;SDS011;20618;0.000;0.000;2023-04-24T02:03:58;3.40;;;2.83;;
34353;SDS011;20618;0.000;0.000;2023-04-24T02:06:25;2.85;;;2.17;;
34353;SDS011;20618;0.000;0.000;2023-04-24T02:08:51;3.63;;;2.70;;
34353;SDS011;20618;0.000;0.000;2023-04-24T02:11:17;3.45;;;2.45;;
34353;SDS011;20618;0.000;0.000;2023-04-24T02:13:43;3.92;;;2.67;;
34353;SDS011;20618;0.000;0.000;2023-04-24T02:16:10;3.17;;;2.35;;
34353;SDS011;20618;0.000;0.000;2023-04-24T02:18:36;3.60;;;2.63;;
34353;SDS011;20618;0.000;0.000;2023-04-24T02:21:02;3.50;;;2.60;;
34353;SDS011;20618;0.000;0.000;2023-04-24T02:23:28;3.75;;;2.67;;
34353;SDS011;20618;0.000;0.000;2023-04-24T02:25:54;3.17;;;2.53;;
34353;SDS011;20618;0.000;0.000;2023-04-24T02:28:20;3.42;;;2.70;;
34353;SDS011;20618;0.000;0.000;2023-04-24T02:30:47;5.20;;;2.60;;
34353;SDS011;20618;0.000;0.000;2023-04-24T02:33:13;3.40;;;2.80;;
34353;SDS011;20618;0.000;0.000;2023-04-24T02:35:39;3.22;;;2.33;;
34353;SDS011;20618;0.000;0.000;2023-04-24T02:38:05;3.67;;;2.85;;
34353;SDS011;20618;0.000;0.000;2023-04-24T02:40:31;3.30;;;2.60;;
34353;SDS011;20618;0.000;0.000;2023-04-24T02:42:57;3.17;;;2.60;;
34353;SDS011;20618;0.000;0.000;2023-04-24T02:45:23;3.20;;;2.67;;
34353;SDS011;20618;0.000;0.000;2023-04-24T02:47:49;3.83;;;2.72;;
34353;SDS011;20618;0.000;0.000;2023-04-24T02:50:16;2.80;;;2.40;;
34353;SDS011;20618;0.000;0.000;2023-04-24T02:52:42;3.65;;;2.85;;
34353;SDS011;20618;0.000;0.000;2023-04-24T02:55:08;2.67;;;2.05;;
34353;SDS011;20618;0.000;0.000;2023-04-24T02:57:34;3.10;;;2.55;;
34353;SDS011;20618;0.000;0.000;2023-04-24T03:00:00;3.38;;;2.55;;
34353;SDS011;20618;0.000;0.000;2023-04-24T03:02:28;4.07;;;2.63;;
34353;SDS011;20618;0.000;0.000;2023-04-24T03:04:54;3.20;;;2.58;;
34353;SDS011;20618;0.000;0.000;2023-04-24T03:07:20;3.20;;;2.60;;
34353;SDS011;20618;0.000;0.000;2023-04-24T03:09:46;3.08;;;2.47;;
34353;SDS011;20618;0.000;0.000;2023-04-24T03:12:13;2.90;;;2.42;;
34353;SDS011;20618;0.000;0.000;2023-04-24T03:14:39;3.65;;;2.50;;
34353;SDS011;20618;0.000;0.000;2023-04-24T03:17:05;3.08;;;2.50;;
34353;SDS011;20618;0.000;0.000;2023-04-24T03:19:31;3.50;;;2.70;;
34353;SDS011;20618;0.000;0.000;2023-04-24T03:21:57;3.30;;;2.63;;
34353;SDS011;20618;0.000;0.000;2023-04-24T03:24:23;4.00;;;2.75;;
34353;SDS011;20618;0.000;0.000;2023-04-24T03:26:49;4.03;;;2.67;;
34353;SDS011;20618;0.000;0.000;2023-04-24T03:29:15;3.10;;;2.53;;
34353;SDS011;20618;0.000;0.000;2023-04-24T03:31:42;3.08;;;2.40;;
34353;SDS011;20618;0.000;0.000;2023-04-24T03:34:08;3.30;;;2.60;;
34353;SDS011;20618;0.000;0.000;2023-04-24T03:36:35;3.10;;;2.60;;
34353;SDS011;20618;0.000;0.000;2023-04-24T03:39:01;2.90;;;2.40;;
34353;SDS011;20618;0.000;0.000;2023-04-24T03:41:27;3.65;;;2.60;;
34353;SDS011;20618;0.000;0.000;2023-04-24T03:43:53;3.10;;;2.58;;
34353;SDS011;20618;0.000;0.000;2023-04-24T03:46:19;3.33;;;2.58;;
34353;SDS011;20618;0.000;0.000;2023-04-24T03:48:46;3.38;;;2.30;;
34353;SDS011;20618;0.000;0.000;2023-04-24T03:51:12;4.00;;;2.60;;
34353;SDS011;20618;0.000;0.000;2023-04-24T03:53:38;4.05;;;2.63;;
34353;SDS011;20618;0.000;0.000;2023-04-24T03:56:04;3.70;;;2.60;;
34353;SDS011;20618;0.000;0.000;2023-04-24T03:58:30;2.97;;;2.67;;
34353;SDS011;20618;0.000;0.000;2023-04-24T04:00:56;3.33;;;2.88;;
34353;SDS011;20618;0.000;0.000;2023-04-24T04:03:23;4.40;;;2.28;;
34353;SDS011;20618;0.000;0.000;2023-04-24T04:05:50;3.97;;;2.53;;
34353;SDS011;20618;0.000;0.000;2023-04-24T04:08:16;3.28;;;2.65;;
34353;SDS011;20618;0.000;0.000;2023-04-24T04:10:42;3.65;;;2.63;;
34353;SDS011;20618;0.000;0.000;2023-04-24T04:13:09;3.38;;;2.53;;
34353;SDS011;20618;0.000;0.000;2023-04-24T04:15:35;3.60;;;2.88;;
34353;SDS011;20618;0.000;0.000;2023-04-24T04:18:01;3.05;;;2.47;;
34353;SDS011;20618;0.000;0.000;2023-04-24T04:20:27;2.97;;;2.50;;
34353;SDS011;20618;0.000;0.000;2023-04-24T04:22:53;3.95;;;2.65;;
34353;SDS011;20618;0.000;0.000;2023-04-24T04:25:20;3.67;;;2.75;;
34353;SDS011;20618;0.000;0.000;2023-04-24T04:27:46;3.65;;;2.63;;
34353;SDS011;20618;0.000;0.000;2023-04-24T04:30:16;3.28;;;2.58;;
34353;SDS011;20618;0.000;0.000;2023-04-24T04:32:43;3.75;;;2.70;;
34353;SDS011;20618;0.000;0.000;2023-04-24T04:35:09;3.10;;;2.47;;
34353;SDS011;20618;0.000;0.000;2023-04-24T04:37:36;2.97;;;2.22;;
34353;SDS011;20618;0.000;0.000;2023-04-24T04:40:03;3.00;;;2.30;;
34353;SDS011;20618;0.000;0.000;2023-04-24T04:42:31;3.30;;;2.53;;
34353;SDS011;20618;0.000;0.000;2023-04-24T04:45:01;3.00;;;2.22;;
34353;SDS011;20618;0.000;0.000;2023-04-24T04:47:28;3.38;;;2.42;;
34353;SDS011;20618;0.000;0.000;2023-04-24T04:49:56;3.00;;;2.30;;
34353;SDS011;20618;0.000;0.000;2023-04-24T04:52:22;3.75;;;2.47;;
34353;SDS011;20618;0.000;0.000;2023-04-24T04:54:52;3.63;;;2.40;;
34353;SDS011;20618;0.000;0.000;2023-04-24T04:57:18;3.08;;;2.20;;
34353;SDS011;20618;0.000;0.000;2023-04-24T04:59:45;3.22;;;2.35;;
34353;SDS011;20618;0.000;0.000;2023-04-24T05:02:11;4.45;;;2.55;;
34353;SDS011;20618;0.000;0.000;2023-04-24T05:04:38;3.15;;;2.50;;
34353;SDS011;20618;0.000;0.000;2023-04-24T05:07:04;2.78;;;2.25;;
34353;SDS011;20618;0.000;0.000;2023-04-24T05:09:30;3.80;;;2.72;;
34353;SDS011;20618;0.000;0.000;2023-04-24T05:11:56;4.55;;;2.75;;
34353;SDS011;20618;0.000;0.000;2023-04-24T05:14:22;3.90;;;2.53;;
34353;SDS011;20618;0.000;0.000;2023-04-24T05:16:49;3.45;;;2.58;;
34353;SDS011;20618;0.000;0.000;2023-04-24T05:19:15;3.85;;;2.42;;
34353;SDS011;20618;0.000;0.000;2023-04-24T05:21:41;2.95;;;2.38;;
34353;SDS011;20618;0.000;0.000;2023-04-24T05:24:07;3.60;;;2.45;;
34353;SDS011;20618;0.000;0.000;2023-04-24T05:26:33;3.83;;;2.80;;
34353;SDS011;20618;0.000;0.000;2023-04-24T05:29:00;3.38;;;2.38;;
34353;SDS011;20618;0.000;0.000;2023-04-24T05:31:27;3.08;;;2.40;;
34353;SDS011;20618;0.000;0.000;2023-04-24T05:33:53;2.75;;;2.38;;
34353;SDS011;20618;0.000;0.000;2023-04-24T05:36:19;3.95;;;2.40;;
34353;SDS011;20618;0.000;0.000;2023-04-24T05:38:45;3.95;;;2.33;;
34353;SDS011;20618;0.000;0.000;2023-04-24T05:41:11;2.83;;;2.17;;
34353;SDS011;20618;0.000;0.000;2023-04-24T05:43:37;3.30;;;2.28;;
34353;SDS011;20618;0.000;0.000;2023-04-24T05:46:04;2.45;;;2.17;;
34353;SDS011;20618;0.000;0.000;2023-04-24T05:48:30;3.60;;;2.50;;
34353;SDS011;20618;0.000;0.000;2023-04-24T05:50:56;3.58;;;2.10;;
34353;SDS011;20618;0.000;0.000;2023-04-24T05:53:22;2.90;;;2.40;;
34353;SDS011;20618;0.000;0.000;2023-04-24T05:55:48;3.00;;;2.45;;
34353;SDS011;20618;0.000;0.000;2023-04-24T05:58:15;2.92;;;2.28;;
34353;SDS011;20618;0.000;0.000;2023-04-24T06:00:41;4.78;;;2.70;;
34353;SDS011;20618;0.000;0.000;2023-04-24T06:03:09;3.65;;;2.30;;
34353;SDS011;20618;0.000;0.000;2023-04-24T06:05:35;3.50;;;2.60;;
34353;SDS011;20618;0.000;0.000;2023-04-24T06:08:01;3.47;;;2.30;;
34353;SDS011;20618;0.000;0.000;2023-04-24T06:10:27;3.58;;;2.80;;
34353;SDS011;20618;0.000;0.000;2023-04-24T06:12:53;3.92;;;2.60;;
34353;SDS011;20618;0.000;0.000;2023-04-24T06:15:25;3.78;;;2.40;;
34353;SDS011;20618;0.000;0.000;2023-04-24T06:17:51;4.55;;;2.83;;
34353;SDS011;20618;0.000;0.000;2023-04-24T06:20:17;4.05;;;2.58;;
34353;SDS011;20618;0.000;0.000;2023-04-24T06:22:43;3.05;;;2.30;;
34353;SDS011;20618;0.000;0.000;2023-04-24T06:25:09;4.18;;;2.53;;
34353;SDS011;20618;0.000;0.000;2023-04-24T06:27:35;4.82;;;2.47;;
34353;SDS011;20618;0.000;0.000;2023-04-24T06:30:02;4.00;;;2.70;;
34353;SDS011;20618;0.000;0.000;2023-04-24T06:32:28;7.43;;;2.80;;
34353;SDS011;20618;0.000;0.000;2023-04-24T06:34:55;5.22;;;2.85;;
34353;SDS011;20618;0.000;0.000;2023-04-24T06:37:22;4.47;;;2.58;;
34353;SDS011;20618;0.000;0.000;2023-04-24T06:39:48;4.55;;;2.83;;
34353;SDS011;20618;0.000;0.000;2023-04-24T06:42:14;5.70;;;2.72;;
34353;SDS011;20618;0.000;0.000;2023-04-24T06:44:41;5.60;;;2.83;;
34353;SDS011;20618;0.000;0.000;2023-04-24T06:47:08;7.05;;;2.80;;
34353;SDS011;20618;0.000;0.000;2023-04-24T06:49:36;3.78;;;2.60;;
34353;SDS011;20618;0.000;0.000;2023-04-24T06:52:03;4.50;;;2.70;;
34353;SDS011;20618;0.000;0.000;2023-04-24T06:54:29;4.20;;;2.67;;
34353;SDS011;20618;0.000;0.000;2023-04-24T06:56:55;5.07;;;2.80;;
34353;SDS011;20618;0.000;0.000;2023-04-24T06:59:28;4.97;;;2.97;;
34353;SDS011;20618;0.000;0.000;2023-04-24T07:01:55;7.07;;;2.78;;
34353;SDS011;20618;0.000;0.000;2023-04-24T07:04:21;4.65;;;2.75;;
34353;SDS011;20618;0.000;0.000;2023-04-24T07:06:49;5.20;;;2.78;;
34353;SDS011;20618;0.000;0.000;2023-04-24T07:09:16;5.65;;;2.92;;
34353;SDS011;20618;0.000;0.000;2023-04-24T07:11:43;5.25;;;3.28;;
34353;SDS011;20618;0.000;0.000;2023-04-24T07:14:10;4.82;;;2.78;;
34353;SDS011;20618;0.000;0.000;2023-04-24T07:16:36;4.57;;;2.80;;
34353;SDS011;20618;0.000;0.000;2023-04-24T07:19:02;4.85;;;2.95;;
34353;SDS011;20618;0.000;0.000;2023-04-24T07:21:29;7.55;;;2.85;;
34353;SDS011;20618;0.000;0.000;2023-04-24T07:23:56;5.05;;;2.90;;
34353;SDS011;20618;0.000;0.000;2023-04-24T07:26:22;8.73;;;3.67;;
34353;SDS011;20618;0.000;0.000;2023-04-24T07:28:48;9.60;;;3.53;;
34353;SDS011;20618;0.000;0.000;2023-04-24T07:31:14;8.25;;;3.42;;
34353;SDS011;20618;0.000;0.000;2023-04-24T07:33:40;10.75;;;3.72;;
34353;SDS011;20618;0.000;0.000;2023-04-24T07:36:07;16.80;;;3.50;;
34353;SDS011;20618;0.000;0.000;2023-04-24T07:38:33;13.43;;;4.10;;
34353;SDS011;20618;0.000;0.000;2023-04-24T07:40:59;20.77;;;3.97;;
34353;SDS011;20618;0.000;0.000;2023-04-24T07:43:25;12.85;;;4.03;;
34353;SDS011;20618;0.000;0.000;2023-04-24T07:45:51;11.75;;;3.97;;
34353;SDS011;20618;0.000;0.000;2023-04-24T07:48:17;32.42;;;4.47;;
34353;SDS011;20618;0.000;0.000;2023-04-24T07:50:44;14.43;;;4.55;;
34353;SDS011;20618;0.000;0.000;2023-04-24T07:53:10;19.95;;;3.88;;
34353;SDS011;20618;0.000;0.000;2023-04-24T07:55:36;19.65;;;4.30;;
34353;SDS011;20618;0.000;0.000;2023-04-24T07:58:03;18.15;;;4.45;;
34353;SDS011;20618;0.000;0.000;2023-04-24T08:00:29;16.05;;;3.78;;
34353;SDS011;20618;0.000;0.000;2023-04-24T08:02:55;10.18;;;3.78;;
34353;SDS011;20618;0.000;0.000;2023-04-24T08:05:21;17.15;;;3.88;;
34353;SDS011;20618;0.000;0.000;2023-04-24T08:07:50;16.92;;;3.50;;
34353;SDS011;20618;0.000;0.000;2023-04-24T08:10:16;17.27;;;4.38;;
34353;SDS011;20618;0.000;0.000;2023-04-24T08:12:42;15.73;;;3.90;;
34353;SDS011;20618;0.000;0.000;2023-04-24T08:15:09;10.98;;;3.40;;
34353;SDS011;20618;0.000;0.000;2023-04-24T08:17:35;21.75;;;4.30;;
34353;SDS011;20618;0.000;0.000;2023-04-24T08:20:02;16.92;;;4.07;;
34353;SDS011;20618;0.000;0.000;2023-04-24T08:22:30;8.85;;;3.35;;
34353;SDS011;20618;0.000;0.000;2023-04-24T08:25:05;10.57;;;3.42;;
34353;SDS011;20618;0.000;0.000;2023-04-24T08:27:32;15.98;;;3.97;;
34353;SDS011;20618;0.000;0.000;2023-04-24T08:29:58;16.00;;;4.10;;
34353;SDS011;20618;0.000;0.000;2023-04-24T08:32:25;27.60;;;5.50;;
34353;SDS011;20618;0.000;0.000;2023-04-24T08:34:55;19.15;;;4.20;;
34353;SDS011;20618;0.000;0.000;2023-04-24T08:37:21;19.13;;;4.00;;
34353;SDS011;20618;0.000;0.000;2023-04-24T08:39:48;17.63;;;4.45;;
34353;SDS011;20618;0.000;0.000;2023-04-24T08:42:15;15.77;;;3.97;;
34353;SDS011;20618;0.000;0.000;2023-04-24T08:44:41;12.85;;;4.05;;
34353;SDS011;20618;0.000;0.000;2023-04-24T08:47:07;16.15;;;4.05;;
34353;SDS011;20618;0.000;0.000;2023-04-24T08:49:34;15.05;;;4.13;;
34353;SDS011;20618;0.000;0.000;2023-04-24T08:52:01;15.00;;;4.32;;
34353;SDS011;20618;0.000;0.000;2023-04-24T08:54:28;18.02;;;4.32;;
34353;SDS011;20618;0.000;0.000;2023-04-24T08:56:57;17.25;;;3.83;;
34353;SDS011;20618;0.000;0.000;2023-04-24T08:59:26;20.02;;;4.40;;
34353;SDS011;20618;0.000;0.000;2023-04-24T09:01:53;17.60;;;4.25;;
34353;SDS011;20618;0.000;0.000;2023-04-24T09:04:21;18.08;;;4.18;;
34353;SDS011;20618;0.000;0.000;2023-04-24T09:06:49;15.60;;;4.72;;
34353;SDS011;20618;0.000;0.000;2023-04-24T09:09:16;14.75;;;4.22;;
34353;SDS011;20618;0.000;0.000;2023-04-24T09:11:43;13.18;;;4.10;;
34353;SDS011;20618;0.000;0.000;2023-04-24T09:14:09;18.00;;;4.40;;
34353;SDS011;20618;0.000;0.000;2023-04-24T09:16:39;19.25;;;4.32;;
34353;SDS011;20618;0.000;0.000;2023-04-24T09:19:05;14.13;;;3.95;;
34353;SDS011;20618;0.000;0.000;2023-04-24T09:21:32;17.85;;;4.82;;
34353;SDS011;20618;0.000;0.000;2023-04-24T09:23:59;17.23;;;4.15;;
34353;SDS011;20618;0.000;0.000;2023-04-24T09:26:26;18.42;;;4.40;;
34353;SDS011;20618;0.000;0.000;2023-04-24T09:28:56;16.25;;;4.65;;
34353;SDS011;20618;0.000;0.000;2023-04-24T09:31:22;19.08;;;4.25;;
34353;SDS011;20618;0.000;0.000;2023-04-24T09:33:56;24.77;;;4.55;;
34353;SDS011;20618;0.000;0.000;2023-04-24T09:37:05;23.33;;;4.93;;
34353;SDS011;20618;0.000;0.000;2023-04-24T09:39:13;26.33;;;5.25;;
34353;SDS011;20618;0.000;0.000;2023-04-24T09:41:47;23.65;;;4.93;;
34353;SDS011;20618;0.000;0.000;2023-04-24T09:44:17;26.20;;;4.32;;
34353;SDS011;20618;0.000;0.000;2023-04-24T09:46:50;25.17;;;4.38;;
34353;SDS011;20618;0.000;0.000;2023-04-24T09:49:22;18.70;;;4.07;;
34353;SDS011;20618;0.000;0.000;2023-04-24T09:51:49;35.38;;;4.72;;
34353;SDS011;20618;0.000;0.000;2023-04-24T09:54:19;21.83;;;4.35;;
34353;SDS011;20618;0.000;0.000;2023-04-24T09:56:47;30.33;;;5.78;;
34353;SDS011;20618;0.000;0.000;2023-04-24T09:59:14;20.33;;;4.85;;
34353;SDS011;20618;0.000;0.000;2023-04-24T10:01:40;22.02;;;4.05;;
34353;SDS011;20618;0.000;0.000;2023-04-24T10:04:23;19.85;;;4.53;;
34353;SDS011;20618;0.000;0.000;2023-04-24T10:06:50;22.10;;;4.90;;
34353;SDS011;20618;0.000;0.000;2023-04-24T10:09:17;21.05;;;4.93;;
34353;SDS011;20618;0.000;0.000;2023-04-24T10:11:44;27.35;;;5.07;;
34353;SDS011;20618;0.000;0.000;2023-04-24T10:14:19;23.17;;;4.70;;
34353;SDS011;20618;0.000;0.000;2023-04-24T10:16:48;21.15;;;4.82;;
34353;SDS011;20618;0.000;0.000;2023-04-24T10:19:15;31.38;;;5.97;;
34353;SDS011;20618;0.000;0.000;2023-04-24T10:21:43;26.33;;;4.75;;
34353;SDS011;20618;0.000;0.000;2023-04-24T10:24:13;30.90;;;5.57;;
34353;SDS011;20618;0.000;0.000;2023-04-24T10:26:40;22.80;;;5.45;;
34353;SDS011;20618;0.000;0.000;2023-04-24T10:29:06;26.92;;;5.28;;
34353;SDS011;20618;0.000;0.000;2023-04-24T10:31:35;23.73;;;4.85;;
34353;SDS011;20618;0.000;0.000;2023-04-24T10:34:02;28.95;;;5.00;;
34353;SDS011;20618;0.000;0.000;2023-04-24T10:36:29;28.45;;;4.97;;
34353;SDS011;20618;0.000;0.000;2023-04-24T10:38:57;26.60;;;5.20;;
34353;SDS011;20618;0.000;0.000;2023-04-24T10:41:25;25.92;;;4.85;;
34353;SDS011;20618;0.000;0.000;2023-04-24T10:46:36;17.98;;;5.00;;
34353;SDS011;20618;0.000;0.000;2023-04-24T10:49:03;21.17;;;5.35;;
34353;SDS011;20618;0.000;0.000;2023-04-24T10:51:46;35.50;;;5.25;;
34353;SDS011;20618;0.000;0.000;2023-04-24T10:54:26;27.17;;;4.72;;
34353;SDS011;20618;0.000;0.000;2023-04-24T10:56:52;31.05;;;6.57;;
34353;SDS011;20618;0.000;0.000;2023-04-24T10:59:29;29.90;;;4.68;;
34353;SDS011;20618;0.000;0.000;2023-04-24T11:02:02;31.85;;;5.20;;
34353;SDS011;20618;0.000;0.000;2023-04-24T11:04:28;29.55;;;4.53;;
34353;SDS011;20618;0.000;0.000;2023-04-24T11:06:55;28.38;;;5.43;;
34353;SDS011;20618;0.000;0.000;2023-04-24T11:09:21;22.25;;;4.70;;
34353;SDS011;20618;0.000;0.000;2023-04-24T11:11:47;22.63;;;4.93;;
34353;SDS011;20618;0.000;0.000;2023-04-24T11:14:14;23.30;;;4.60;;
34353;SDS011;20618;0.000;0.000;2023-04-24T11:21:42;16.60;;;4.70;;
34353;SDS011;20618;0.000;0.000;2023-04-24T11:24:28;21.30;;;4.22;;
34353;SDS011;20618;0.000;0.000;2023-04-24T11:26:55;22.38;;;4.50;;
34353;SDS011;20618;0.000;0.000;2023-04-24T11:29:22;16.98;;;4.32;;
34353;SDS011;20618;0.000;0.000;2023-04-24T11:31:48;20.30;;;4.78;;
34353;SDS011;20618;0.000;0.000;2023-04-24T11:34:17;21.05;;;5.00;;
34353;SDS011;20618;0.000;0.000;2023-04-24T11:36:44;18.17;;;4.00;;
34353;SDS011;20618;0.000;0.000;2023-04-24T11:39:11;29.88;;;4.95;;
34353;SDS011;20618;0.000;0.000;2023-04-24T11:41:37;33.15;;;5.38;;
34353;SDS011;20618;0.000;0.000;2023-04-24T11:44:05;20.42;;;4.43;;
34353;SDS011;20618;0.000;0.000;2023-04-24T11:46:32;14.18;;;4.30;;
34353;SDS011;20618;0.000;0.000;2023-04-24T11:48:58;24.30;;;4.45;;
34353;SDS011;20618;0.000;0.000;2023-04-24T11:51:28;23.48;;;4.95;;
34353;SDS011;20618;0.000;0.000;2023-04-24T11:53:55;21.50;;;5.40;;
34353;SDS011;20618;0.000;0.000;2023-04-24T11:56:22;23.63;;;5.03;;
34353;SDS011;20618;0.000;0.000;2023-04-24T11:58:48;21.02;;;5.75;;
34353;SDS011;20618;0.000;0.000;2023-04-24T12:01:14;19.88;;;4.68;;
34353;SDS011;20618;0.000;0.000;2023-04-24T12:03:40;29.38;;;5.38;;
34353;SDS011;20618;0.000;0.000;2023-04-24T12:06:11;26.70;;;4.85;;
34353;SDS011;20618;0.000;0.000;2023-04-24T12:08:38;25.42;;;5.38;;
34353;SDS011;20618;0.000;0.000;2023-04-24T12:11:05;32.20;;;6.43;;
34353;SDS011;20618;0.000;0.000;2023-04-24T12:13:34;37.45;;;5.57;;
34353;SDS011;20618;0.000;0.000;2023-04-24T12:16:02;30.60;;;5.00;;
34353;SDS011;20618;0.000;0.000;2023-04-24T12:18:30;34.78;;;5.68;;
34353;SDS011;20618;0.000;0.000;2023-04-24T12:21:14;41.75;;;6.38;;
34353;SDS011;20618;0.000;0.000;2023-04-24T12:23:42;35.20;;;5.80;;
34353;SDS011;20618;0.000;0.000;2023-04-24T12:26:08;36.40;;;7.03;;
34353;SDS011;20618;0.000;0.000;2023-04-24T12:28:38;29.15;;;5.40;;
34353;SDS011;20618;0.000;0.000;2023-04-24T12:31:04;35.13;;;5.70;;
34353;SDS011;20618;0.000;0.000;2023-04-24T12:33:34;23.20;;;4.82;;
34353;SDS011;20618;0.000;0.000;2023-04-24T12:36:01;31.80;;;5.15;;
34353;SDS011;20618;0.000;0.000;2023-04-24T12:38:29;36.72;;;5.43;;
34353;SDS011;20618;0.000;0.000;2023-04-24T12:41:08;34.30;;;5.70;;
34353;SDS011;20618;0.000;0.000;2023-04-24T12:43:35;25.90;;;5.85;;
34353;SDS011;20618;0.000;0.000;2023-04-24T12:46:01;30.55;;;5.72;;
34353;SDS011;20618;0.000;0.000;2023-04-24T12:48:28;32.90;;;5.75;;
34353;SDS011;20618;0.000;0.000;2023-04-24T12:50:54;25.52;;;6.00;;
34353;SDS011;20618;0.000;0.000;2023-04-24T12:53:21;33.25;;;5.88;;
34353;SDS011;20618;0.000;0.000;2023-04-24T12:55:47;25.08;;;4.85;;
34353;SDS011;20618;0.000;0.000;2023-04-24T12:58:20;32.42;;;6.07;;
34353;SDS011;20618;0.000;0.000;2023-04-24T13:00:47;34.83;;;5.63;;
34353;SDS011;20618;0.000;0.000;2023-04-24T13:03:13;24.10;;;5.47;;
34353;SDS011;20618;0.000;0.000;2023-04-24T13:05:40;21.60;;;5.03;;
34353;SDS011;20618;0.000;0.000;2023-04-24T13:08:06;31.83;;;5.63;;
34353;SDS011;20618;0.000;0.000;2023-04-24T13:10:32;30.75;;;5.38;;
34353;SDS011;20618;0.000;0.000;2023-04-24T13:12:59;30.52;;;5.00;;
34353;SDS011;20618;0.000;0.000;2023-04-24T13:15:25;31.58;;;6.32;;
34353;SDS011;20618;0.000;0.000;2023-04-24T13:17:51;25.63;;;5.70;;
34353;SDS011;20618;0.000;0.000;2023-04-24T13:20:17;22.58;;;5.57;;
34353;SDS011;20618;0.000;0.000;2023-04-24T13:22:43;28.58;;;5.50;;
34353;SDS011;20618;0.000;0.000;2023-04-24T13:25:10;31.33;;;5.47;;
34353;SDS011;20618;0.000;0.000;2023-04-24T13:27:38;32.50;;;6.53;;
34353;SDS011;20618;0.000;0.000;2023-04-24T13:30:05;23.88;;;4.43;;
34353;SDS011;20618;0.000;0.000;2023-04-24T13:32:32;24.92;;;5.00;;
34353;SDS011;20618;0.000;0.000;2023-04-24T13:34:58;31.63;;;5.93;;
34353;SDS011;20618;0.000;0.000;2023-04-24T13:37:25;29.65;;;5.40;;
34353;SDS011;20618;0.000;0.000;2023-04-24T13:39:51;33.17;;;5.22;;
34353;SDS011;20618;0.000;0.000;2023-04-24T13:42:17;28.75;;;5.10;;
34353;SDS011;20618;0.000;0.000;2023-04-24T13:44:43;32.58;;;5.50;;
34353;SDS011;20618;0.000;0.000;2023-04-24T13:47:10;25.40;;;5.43;;
34353;SDS011;20618;0.000;0.000;2023-04-24T13:49:36;32.10;;;5.80;;
34353;SDS011;20618;0.000;0.000;2023-04-24T13:52:02;24.25;;;4.95;;
34353;SDS011;20618;0.000;0.000;2023-04-24T13:54:28;35.75;;;5.25;;
34353;SDS011;20618;0.000;0.000;2023-04-24T13:56:57;26.00;;;4.72;;
34353;SDS011;20618;0.000;0.000;2023-04-24T13:59:23;30.88;;;5.65;;
34353;SDS011;20618;0.000;0.000;2023-04-24T14:01:50;23.60;;;5.60;;
34353;SDS011;20618;0.000;0.000;2023-04-24T14:04:16;21.17;;;6.18;;
34353;SDS011;20618;0.000;0.000;2023-04-24T14:06:43;31.85;;;5.43;;
34353;SDS011;20618;0.000;0.000;2023-04-24T14:09:09;38.17;;;6.20;;
34353;SDS011;20618;0.000;0.000;2023-04-24T14:11:35;35.35;;;6.32;;
34353;SDS011;20618;0.000;0.000;2023-04-24T14:14:01;23.98;;;4.88;;
34353;SDS011;20618;0.000;0.000;2023-04-24T14:16:28;32.95;;;5.25;;
34353;SDS011;20618;0.000;0.000;2023-04-24T14:18:55;36.83;;;5.95;;
34353;SDS011;20618;0.000;0.000;2023-04-24T14:21:21;38.28;;;6.30;;
34353;SDS011;20618;0.000;0.000;2023-04-24T14:23:47;25.90;;;5.38;;
34353;SDS011;20618;0.000;0.000;2023-04-24T14:26:13;29.83;;;5.35;;
34353;SDS011;20618;0.000;0.000;2023-04-24T14:28:40;34.60;;;5.55;;
34353;SDS011;20618;0.000;0.000;2023-04-24T14:31:06;34.00;;;5.20;;
34353;SDS011;20618;0.000;0.000;2023-04-24T14:33:33;24.77;;;5.07;;
34353;SDS011;20618;0.000;0.000;2023-04-24T14:35:59;32.13;;;5.82;;
34353;SDS011;20618;0.000;0.000;2023-04-24T14:38:27;30.13;;;5.45;;
34353;SDS011;20618;0.000;0.000;2023-04-24T14:40:53;42.72;;;6.78;;
34353;SDS011;20618;0.000;0.000;2023-04-24T14:43:19;29.90;;;5.68;;
34353;SDS011;20618;0.000;0.000;2023-04-24T14:45:45;36.22;;;4.55;;
34353;SDS011;20618;0.000;0.000;2023-04-24T14:48:12;30.85;;;5.30;;
34353;SDS011;20618;0.000;0.000;2023-04-24T14:50:38;28.50;;;6.07;;
34353;SDS011;20618;0.000;0.000;2023-04-24T14:53:04;34.40;;;5.35;;
34353;SDS011;20618;0.000;0.000;2023-04-24T14:55:31;30.52;;;5.05;;
34353;SDS011;20618;0.000;0.000;2023-04-24T14:57:59;34.25;;;4.72;;
34353;SDS011;20618;0.000;0.000;2023-04-24T15:00:25;31.75;;;5.10;;
34353;SDS011;20618;0.000;0.000;2023-04-24T15:02:51;26.75;;;5.32;;